Time;durP1;ratioP1;P1;durP2;ratioP2;P2;SDS_P1;SDS_P2;PMS_P1;PMS_P2;Temp;Humidity;BMP_temperature;BMP_pressure;BME280_temperature;BME280_humidity;BME280_pressure;Samples;Min_cycle;Max_cycle;Signal;HPM_P1;HPM_P2
2021/08/09 00:00:46;;;;;;;4.00;3.60;;;;;;;25.54;48.43;95012.47;6278460;22;20466;-88
2021/08/09 00:03:14;;;;;;;4.10;3.80;;;;;;;25.52;48.21;95011.88;6278375;22;20922;-88
2021/08/09 00:05:41;;;;;;;3.67;3.30;;;;;;;25.46;48.08;95010.06;6278989;22;20407;-87
2021/08/09 00:08:10;;;;;;;4.30;4.00;;;;;;;25.42;49.08;95008.84;6278364;22;20989;-87
2021/08/09 00:10:37;;;;;;;5.13;3.70;;;;;;;25.45;47.96;95013.81;6278590;22;21036;-88
2021/08/09 00:13:04;;;;;;;6.73;4.63;;;;;;;25.47;48.49;95012.53;6278282;22;20395;-87
2021/08/09 00:15:31;;;;;;;3.80;3.50;;;;;;;25.49;49.10;95006.94;6278352;22;20785;-87
2021/08/09 00:17:58;;;;;;;3.80;3.50;;;;;;;25.52;49.08;95012.69;6278753;22;20407;-87
2021/08/09 00:20:25;;;;;;;4.00;3.70;;;;;;;25.54;49.08;95017.84;6278332;22;20475;-87
2021/08/09 00:22:52;;;;;;;4.67;4.27;;;;;;;25.53;48.64;95016.22;6278970;22;20443;-86
2021/08/09 00:25:20;;;;;;;4.23;3.93;;;;;;;25.55;49.77;95012.25;6227774;22;20435;-86
2021/08/09 00:27:47;;;;;;;4.83;4.40;;;;;;;25.50;49.03;95017.47;6281416;22;20435;-87
2021/08/09 00:30:14;;;;;;;4.07;3.77;;;;;;;25.49;49.19;95021.22;6278474;22;20470;-87
2021/08/09 00:32:41;;;;;;;4.23;3.90;;;;;;;25.37;50.13;95017.56;6225096;22;20551;-87
2021/08/09 00:35:10;;;;;;;5.03;4.53;;;;;;;25.26;49.11;95021.78;6225660;22;20784;-87
2021/08/09 00:37:37;;;;;;;4.37;4.07;;;;;;;25.15;49.81;95025.16;6225405;22;20423;-86
2021/08/09 00:40:05;;;;;;;5.60;4.13;;;;;;;25.12;50.49;95022.91;6277865;22;20399;-86
2021/08/09 00:42:34;;;;;;;5.80;4.03;;;;;;;25.02;51.30;95017.19;6278960;22;20481;-87
2021/08/09 00:45:01;;;;;;;4.50;4.20;;;;;;;24.94;50.76;95031.66;6278255;22;20462;-87
2021/08/09 00:47:27;;;;;;;7.80;4.03;;;;;;;24.87;51.43;95030.06;6278287;22;20470;-87
2021/08/09 00:49:54;;;;;;;4.13;3.83;;;;;;;24.83;52.47;95028.81;6277903;22;20910;-87
2021/08/09 00:52:22;;;;;;;3.80;3.57;;;;;;;24.79;51.98;95027.63;6278139;22;20472;-87
2021/08/09 00:54:50;;;;;;;4.40;4.00;;;;;;;24.82;52.03;95024.50;6278047;22;20687;-87
2021/08/09 00:57:17;;;;;;;4.70;4.30;;;;;;;24.77;51.03;95022.47;6277878;22;20421;-86
2021/08/09 00:59:46;;;;;;;5.80;4.00;;;;;;;24.73;51.74;95020.44;6278884;22;20473;-86
2021/08/09 01:02:13;;;;;;;4.37;4.07;;;;;;;24.55;51.12;95010.38;6225652;22;20464;-87
2021/08/09 01:04:40;;;;;;;4.67;4.27;;;;;;;24.47;52.02;95014.13;6278561;22;20917;-87
2021/08/09 01:07:08;;;;;;;6.00;4.60;;;;;;;24.44;52.09;95019.94;6224955;22;20476;-87
2021/08/09 01:09:42;;;;;;;5.13;4.73;;;;;;;24.42;52.69;95024.69;6225443;22;20498;-87
2021/08/09 01:12:16;;;;;;;5.07;4.67;;;;;;;24.42;52.21;95022.00;6277561;22;20434;-87
2021/08/09 01:14:54;;;;;;;5.10;4.70;;;;;;;24.42;52.20;95023.88;6278084;22;20486;-86
2021/08/09 01:17:26;;;;;;;5.97;4.70;;;;;;;24.44;53.08;95030.66;6277604;22;20925;-87
2021/08/09 01:20:04;;;;;;;5.33;4.70;;;;;;;24.48;51.99;95031.88;6277578;22;20434;-87
2021/08/09 01:22:40;;;;;;;4.80;4.50;;;;;;;24.48;52.78;95034.56;6277578;22;20519;-87
2021/08/09 01:25:17;;;;;;;5.60;5.20;;;;;;;24.44;52.56;95036.03;6278694;22;20398;-87
2021/08/09 01:27:50;;;;;;;6.13;5.00;;;;;;;24.36;52.23;95030.91;6277567;22;20477;-87
2021/08/09 01:30:19;;;;;;;5.53;4.87;;;;;;;24.32;53.45;95029.69;6277861;22;20401;-87
2021/08/09 01:32:48;;;;;;;5.70;5.07;;;;;;;24.33;52.53;95028.66;6277432;22;20513;-87
2021/08/09 01:35:17;;;;;;;4.83;4.47;;;;;;;24.32;53.00;95035.06;6277890;22;20397;-87
2021/08/09 01:37:46;;;;;;;5.20;4.70;;;;;;;24.26;52.36;95030.47;6225030;22;20936;-87
2021/08/09 01:40:15;;;;;;;5.47;5.07;;;;;;;24.05;53.08;95035.09;6277730;22;20443;-87
2021/08/09 01:42:45;;;;;;;5.03;4.73;;;;;;;23.93;53.96;95036.75;6277717;22;20479;-86
2021/08/09 01:45:15;;;;;;;5.00;4.60;;;;;;;23.87;53.68;95042.94;6277613;22;20516;-87
2021/08/09 01:47:43;;;;;;;5.50;5.00;;;;;;;23.82;53.88;95040.06;6277680;22;20430;-87
2021/08/09 01:50:12;;;;;;;5.67;5.03;;;;;;;23.83;53.53;95038.22;6278428;22;20416;-88
2021/08/09 01:52:41;;;;;;;5.03;4.50;;;;;;;23.84;54.74;95032.63;6224433;22;20533;-87
2021/08/09 01:55:10;;;;;;;5.47;5.07;;;;;;;23.75;54.44;95037.41;6277268;22;20515;-87
2021/08/09 01:57:38;;;;;;;6.23;4.90;;;;;;;23.76;54.21;95038.22;6277604;22;20474;-87
2021/08/09 02:00:07;;;;;;;5.67;5.17;;;;;;;23.84;54.51;95045.22;6277622;22;20464;-87
2021/08/09 02:02:36;;;;;;;5.20;4.57;;;;;;;23.78;54.32;95044.19;6277121;22;20443;-87
2021/08/09 02:05:08;;;;;;;5.80;4.57;;;;;;;23.85;53.13;95041.50;6224053;22;20951;-87
2021/08/09 02:07:36;;;;;;;4.83;4.43;;;;;;;23.83;53.05;95047.06;6277480;22;20482;-87
2021/08/09 02:10:04;;;;;;;5.40;5.00;;;;;;;23.76;53.90;95049.78;6277219;22;20471;-87
2021/08/09 02:12:31;;;;;;;5.60;5.17;;;;;;;23.75;53.45;95055.34;6277487;22;20475;-87
2021/08/09 02:15:03;;;;;;;5.00;4.60;;;;;;;23.78;54.57;95060.28;6277312;22;20874;-87
2021/08/09 02:17:35;;;;;;;4.93;4.53;;;;;;;23.82;53.56;95061.50;6277243;22;20887;-87
2021/08/09 02:20:12;;;;;;;4.80;4.43;;;;;;;23.86;53.91;95057.38;6277656;22;20488;-87
2021/08/09 02:22:42;;;;;;;5.73;5.10;;;;;;;23.92;53.55;95072.63;6277501;22;20460;-87
2021/08/09 02:25:14;;;;;;;5.50;4.37;;;;;;;23.96;53.59;95078.38;6276979;22;20807;-87
2021/08/09 02:27:46;;;;;;;4.77;4.40;;;;;;;23.91;52.69;95062.09;6277340;22;20390;-87
2021/08/09 02:30:17;;;;;;;5.37;4.97;;;;;;;24.09;53.56;95073.03;6276973;22;20418;-87
2021/08/09 02:32:45;;;;;;;5.23;4.83;;;;;;;24.08;51.99;95077.56;6277309;22;20767;-88
2021/08/09 02:35:17;;;;;;;5.00;4.60;;;;;;;24.10;52.39;95072.81;6277464;22;20492;-88
2021/08/09 02:37:46;;;;;;;5.43;4.93;;;;;;;24.10;52.20;95070.13;6276825;22;20422;-87
2021/08/09 02:40:15;;;;;;;5.77;5.20;;;;;;;24.14;52.52;95073.22;6277151;22;20450;-87
2021/08/09 02:42:43;;;;;;;6.60;4.43;;;;;;;24.17;52.62;95072.78;6276786;22;20436;-87
2021/08/09 02:45:11;;;;;;;4.57;4.17;;;;;;;24.24;52.12;95070.91;6276901;22;20507;-87
2021/08/09 02:47:38;;;;;;;4.43;4.07;;;;;;;24.29;51.96;95073.03;6277372;22;20476;-87
2021/08/09 02:50:07;;;;;;;4.93;4.53;;;;;;;24.36;52.82;95076.50;6277079;22;20783;-88
2021/08/09 02:52:41;;;;;;;4.53;4.20;;;;;;;24.31;51.98;95076.31;6224192;22;20550;-88
2021/08/09 02:55:09;;;;;;;4.93;4.53;;;;;;;24.19;51.05;95084.13;6276959;22;20517;-87
2021/08/09 02:57:38;;;;;;;4.50;4.20;;;;;;;24.09;51.95;95075.72;6277587;22;20422;-87
2021/08/09 03:00:06;;;;;;;4.70;4.40;;;;;;;24.04;52.32;95081.69;6276512;22;20415;-87
2021/08/09 03:02:37;;;;;;;6.67;4.60;;;;;;;24.03;52.62;95085.41;6225224;22;20488;-87
2021/08/09 03:05:07;;;;;;;5.20;4.80;;;;;;;24.04;51.72;95096.97;6277546;22;20413;-87
2021/08/09 03:07:37;;;;;;;4.77;4.37;;;;;;;24.08;51.52;95090.97;6276622;22;20456;-86
2021/08/09 03:10:06;;;;;;;4.93;4.40;;;;;;;24.10;51.82;95096.94;6277024;22;20402;-87
2021/08/09 03:12:33;;;;;;;4.93;4.53;;;;;;;23.96;51.77;95097.16;6277346;22;20520;-87
2021/08/09 03:15:01;;;;;;;5.17;4.77;;;;;;;23.90;52.14;95098.81;6276669;22;20465;-86
2021/08/09 03:17:28;;;;;;;5.73;5.23;;;;;;;23.78;52.76;95097.78;6277140;22;20482;-87
2021/08/09 03:19:55;;;;;;;4.53;4.23;;;;;;;23.77;52.98;95096.16;6276951;22;20429;-87
2021/08/09 03:22:22;;;;;;;4.70;4.40;;;;;;;23.82;52.21;95109.75;6276589;22;20953;-87
2021/08/09 03:24:50;;;;;;;5.27;4.53;;;;;;;23.85;53.30;95108.50;6276633;22;20488;-87
2021/08/09 03:27:17;;;;;;;6.03;5.50;;;;;;;23.84;53.09;95106.88;6276703;22;20479;-87
2021/08/09 03:29:44;;;;;;;7.97;5.73;;;;;;;23.75;52.97;95103.56;6276814;22;20946;-88
2021/08/09 03:32:11;;;;;;;5.50;5.00;;;;;;;23.71;52.88;95107.69;6277003;22;20472;-87
2021/08/09 03:34:38;;;;;;;4.53;4.23;;;;;;;23.66;54.34;95110.16;6276551;22;20397;-87
2021/08/09 03:37:05;;;;;;;5.77;4.90;;;;;;;23.64;53.78;95112.22;6276948;22;20441;-87
2021/08/09 03:39:32;;;;;;;9.90;5.10;;;;;;;23.68;53.30;95114.25;6276554;22;20814;-87
2021/08/09 03:42:01;;;;;;;8.80;4.80;;;;;;;23.74;53.41;95124.19;6249169;22;20403;-87
2021/08/09 03:44:28;;;;;;;5.33;4.93;;;;;;;23.79;52.64;95124.38;6277026;22;20432;-87
2021/08/09 03:46:55;;;;;;;5.30;4.90;;;;;;;23.79;52.79;95124.38;6277198;22;20943;-87
2021/08/09 03:49:21;;;;;;;5.07;4.50;;;;;;;23.81;52.48;95116.13;6277292;22;20764;-87
2021/08/09 03:51:48;;;;;;;4.97;4.57;;;;;;;23.85;53.12;95117.38;6276456;22;20472;-87
2021/08/09 03:54:15;;;;;;;5.00;4.63;;;;;;;23.91;52.60;95124.59;6276574;22;20433;-87
2021/08/09 03:56:42;;;;;;;5.03;4.63;;;;;;;23.83;52.72;95116.75;6276617;22;20477;-87
2021/08/09 03:59:11;;;;;;;5.13;4.73;;;;;;;23.82;53.04;95119.66;6276535;22;20468;-87
2021/08/09 04:01:40;;;;;;;5.37;4.77;;;;;;;23.87;53.08;95127.88;6276492;22;20889;-88
2021/08/09 04:04:07;;;;;;;4.67;4.37;;;;;;;23.90;52.90;95124.78;6276452;22;20405;-87
2021/08/09 04:06:35;;;;;;;5.37;4.97;;;;;;;24.00;52.70;95120.69;6276103;22;20408;-87
2021/08/09 04:09:02;;;;;;;7.87;4.87;;;;;;;24.18;52.19;95124.56;6277689;22;20746;-87
2021/08/09 04:11:29;;;;;;;5.50;5.00;;;;;;;24.56;51.26;95120.19;6278169;22;20454;-87
2021/08/09 04:13:57;;;;;;;5.00;4.60;;;;;;;25.08;49.80;95121.06;6277938;22;20470;-87
2021/08/09 04:16:26;;;;;;;4.67;4.27;;;;;;;25.52;48.79;95122.88;6278067;22;20422;-87
2021/08/09 04:18:53;;;;;;;4.83;4.50;;;;;;;25.96;47.38;95117.63;6225656;22;20400;-87
2021/08/09 04:21:20;;;;;;;5.03;4.63;;;;;;;26.46;46.05;95124.63;6278859;22;20475;-88
2021/08/09 04:23:48;;;;;;;5.17;4.77;;;;;;;26.90;44.52;95117.34;6278571;22;20492;-88
2021/08/09 04:26:16;;;;;;;4.73;4.43;;;;;;;27.52;45.63;95123.38;6227956;22;20720;-82
2021/08/09 04:28:43;;;;;;;4.93;4.53;;;;;;;28.09;44.49;95121.06;6281115;22;20393;-83
2021/08/09 04:31:10;;;;;;;5.17;4.77;;;;;;;28.49;42.92;95123.09;6279445;22;20435;-82
2021/08/09 04:33:43;;;;;;;5.07;4.60;;;;;;;28.74;42.31;95123.66;6279197;22;20547;-82
2021/08/09 04:36:10;;;;;;;5.57;5.07;;;;;;;29.03;41.23;95123.75;6278699;22;20728;-81
2021/08/09 04:38:37;;;;;;;4.73;4.43;;;;;;;29.35;40.90;95116.00;6279060;22;20559;-82
2021/08/09 04:41:07;;;;;;;6.13;4.53;;;;;;;29.56;39.42;95116.19;6278038;22;20480;-82
2021/08/09 04:43:34;;;;;;;5.00;4.50;;;;;;;29.83;38.42;95123.72;6278983;22;20409;-82
2021/08/09 04:46:02;;;;;;;6.83;4.43;;;;;;;29.88;38.21;95132.72;6278430;22;20748;-83
2021/08/09 04:48:29;;;;;;;5.20;4.70;;;;;;;29.85;37.98;95130.50;6278256;22;20476;-82
2021/08/09 04:50:57;;;;;;;6.27;4.67;;;;;;;29.68;37.91;95124.25;6278317;22;20436;-84
2021/08/09 04:53:26;;;;;;;5.00;4.50;;;;;;;29.78;39.04;95139.81;6278293;22;20476;-82
2021/08/09 04:55:53;;;;;;;5.87;5.20;;;;;;;29.80;39.57;95141.25;6278547;22;20476;-81
2021/08/09 04:58:20;;;;;;;6.03;4.70;;;;;;;29.72;38.76;95138.91;6278734;22;20502;-83
2021/08/09 05:00:47;;;;;;;5.20;4.70;;;;;;;29.74;40.11;95154.91;6278349;22;20771;-82
2021/08/09 05:03:14;;;;;;;4.57;4.27;;;;;;;29.54;38.96;95153.47;6278079;22;20844;-82
2021/08/09 05:05:44;;;;;;;12.97;5.30;;;;;;;29.45;39.33;95157.63;6277892;22;20487;-81
2021/08/09 05:08:12;;;;;;;4.93;4.60;;;;;;;29.31;39.50;95169.75;6278099;22;20393;-84
2021/08/09 05:10:40;;;;;;;5.30;4.90;;;;;;;29.28;39.25;95165.66;6278530;22;20478;-81
2021/08/09 05:13:07;;;;;;;4.93;4.23;;;;;;;29.24;40.11;95169.91;6278099;22;20464;-81
2021/08/09 05:15:36;;;;;;;10.70;4.43;;;;;;;29.22;38.56;95172.03;6278404;22;20389;-82
2021/08/09 05:18:03;;;;;;;6.53;4.80;;;;;;;29.11;38.77;95163.91;6277814;22;20950;-82
2021/08/09 05:20:31;;;;;;;4.63;4.13;;;;;;;29.17;39.41;95171.06;6278067;22;20439;-81
2021/08/09 05:22:57;;;;;;;9.77;5.00;;;;;;;29.22;38.58;95174.72;6277701;22;20447;-81
2021/08/09 05:25:26;;;;;;;7.00;5.33;;;;;;;29.30;39.52;95170.81;6278333;22;20443;-81
2021/08/09 05:27:53;;;;;;;10.20;5.20;;;;;;;29.48;39.85;95173.34;6277767;22;20396;-82
2021/08/09 05:30:20;;;;;;;10.73;4.70;;;;;;;29.67;38.73;95167.75;6278185;22;20482;-84
2021/08/09 05:32:47;;;;;;;4.93;4.53;;;;;;;29.92;38.07;95173.66;6278309;22;20530;-82
2021/08/09 05:35:14;;;;;;;5.33;4.30;;;;;;;30.33;37.65;95171.66;6278118;22;20955;-81
2021/08/09 05:37:41;;;;;;;4.50;4.20;;;;;;;30.74;36.94;95179.38;6277877;22;20483;-86
2021/08/09 05:40:09;;;;;;;9.10;4.70;;;;;;;31.06;36.14;95181.44;6277269;22;20479;-83
2021/08/09 05:42:39;;;;;;;4.80;4.30;;;;;;;31.08;36.32;95177.41;6277282;22;20488;-88
2021/08/09 05:45:07;;;;;;;5.67;4.67;;;;;;;31.24;35.60;95173.06;6278268;22;20452;-86
2021/08/09 05:47:34;;;;;;;4.90;4.50;;;;;;;31.27;35.91;95166.31;6277706;22;20417;-86
2021/08/09 05:53:26;;;;;;;5.75;4.90;;;;;;;31.29;36.36;95164.16;6276463;22;20451;-84
2021/08/09 05:55:53;;;;;;;5.90;5.30;;;;;;;31.20;36.07;95180.03;6278687;22;20158;-82
2021/08/09 05:58:22;;;;;;;5.30;4.90;;;;;;;31.22;35.82;95179.78;6277777;22;20487;-81
2021/08/09 06:00:49;;;;;;;5.43;5.03;;;;;;;31.29;36.02;95181.25;6275419;22;20393;-80
2021/08/09 06:03:18;;;;;;;7.23;5.20;;;;;;;31.51;36.08;95177.69;6277022;22;20445;-81
2021/08/09 06:05:45;;;;;;;28.77;9.87;;;;;;;31.64;36.30;95177.31;6277004;22;20413;-80
2021/08/09 06:08:12;;;;;;;12.10;5.40;;;;;;;31.68;35.74;95173.84;6275049;22;20607;-80
2021/08/09 06:10:39;;;;;;;5.37;4.97;;;;;;;31.87;35.46;95177.06;6222935;22;20475;-80
2021/08/09 06:13:06;;;;;;;8.77;5.57;;;;;;;31.93;34.81;95165.16;6276526;22;20472;-79
2021/08/09 06:15:35;;;;;;;5.67;4.30;;;;;;;32.07;34.54;95170.97;6276421;22;20571;-81
2021/08/09 06:18:02;;;;;;;4.70;4.13;;;;;;;32.13;34.61;95172.69;6276957;22;20475;-80
2021/08/09 06:20:29;;;;;;;4.80;4.50;;;;;;;32.12;34.40;95171.06;6275998;22;20484;-81
2021/08/09 06:22:57;;;;;;;5.37;4.87;;;;;;;32.25;34.42;95172.50;6276184;22;20495;-80
2021/08/09 06:25:24;;;;;;;4.93;4.30;;;;;;;32.37;34.23;95173.19;6224163;22;20405;-81
2021/08/09 06:27:51;;;;;;;4.73;4.33;;;;;;;32.58;33.89;95166.81;6223499;22;20472;-80
2021/08/09 06:30:18;;;;;;;5.00;4.60;;;;;;;32.80;34.00;95171.38;6277093;22;20492;-80
2021/08/09 06:32:46;;;;;;;5.10;4.70;;;;;;;32.94;33.36;95158.94;6277041;22;20987;-81
2021/08/09 06:35:13;;;;;;;12.50;5.47;;;;;;;33.03;33.73;95159.28;6276653;22;20891;-80
2021/08/09 06:37:41;;;;;;;6.80;4.80;;;;;;;33.01;33.83;95159.53;6277102;22;20764;-80
2021/08/09 06:40:10;;;;;;;5.50;4.50;;;;;;;32.99;34.40;95163.59;6277080;22;20440;-80
2021/08/09 06:42:37;;;;;;;6.73;4.40;;;;;;;32.97;34.01;95174.75;6276904;22;20405;-80
2021/08/09 06:45:05;;;;;;;5.53;5.03;;;;;;;32.98;32.89;95175.56;6276582;22;20975;-80
2021/08/09 06:47:31;;;;;;;6.00;5.10;;;;;;;32.94;31.56;95165.19;6277088;22;20439;-80
2021/08/09 06:50:00;;;;;;;7.03;5.60;;;;;;;32.84;31.28;95169.75;6275905;22;20476;-80
2021/08/09 06:52:27;;;;;;;5.40;4.30;;;;;;;32.94;31.98;95178.78;6275718;22;20480;-80
2021/08/09 06:54:58;;;;;;;5.40;5.00;;;;;;;32.88;31.82;95173.59;6275894;22;20472;-80
2021/08/09 06:57:25;;;;;;;7.93;4.63;;;;;;;32.91;31.80;95175.78;6275239;22;20419;-80
2021/08/09 06:59:52;;;;;;;6.43;5.67;;;;;;;32.76;32.93;95170.22;6276382;22;20451;-81
2021/08/09 07:02:19;;;;;;;15.33;5.97;;;;;;;32.84;31.84;95178.72;6275720;22;20439;-81
2021/08/09 07:04:46;;;;;;;5.93;5.47;;;;;;;32.97;33.27;95176.66;6222218;22;20435;-81
2021/08/09 07:07:14;;;;;;;5.37;4.87;;;;;;;33.11;32.63;95175.91;6274896;22;20472;-81
2021/08/09 07:09:41;;;;;;;5.93;5.43;;;;;;;33.18;32.74;95181.09;6275125;22;20484;-81
2021/08/09 07:12:09;;;;;;;7.47;4.83;;;;;;;33.40;32.48;95172.78;6274960;22;21010;-81
2021/08/09 07:14:36;;;;;;;5.90;5.17;;;;;;;33.51;30.73;95179.91;6274120;22;21176;-81
2021/08/09 07:17:03;;;;;;;6.40;5.77;;;;;;;33.59;31.65;95171.25;6274499;22;20408;-81
2021/08/09 07:19:30;;;;;;;7.97;5.47;;;;;;;33.49;31.17;95176.63;6274001;22;20433;-81
2021/08/09 07:21:57;;;;;;;7.50;6.43;;;;;;;33.48;31.18;95173.09;6275283;22;20401;-81
2021/08/09 07:24:26;;;;;;;6.03;5.23;;;;;;;33.57;32.60;95170.69;6275027;22;20407;-81
2021/08/09 07:26:53;;;;;;;5.60;5.20;;;;;;;33.50;32.74;95167.38;6275684;22;20491;-81
2021/08/09 07:29:20;;;;;;;8.73;5.43;;;;;;;33.48;32.05;95172.28;6275694;22;20401;-81
2021/08/09 07:31:47;;;;;;;5.23;4.70;;;;;;;33.60;32.98;95167.44;6273916;22;20487;-81
2021/08/09 07:34:14;;;;;;;5.50;5.00;;;;;;;33.38;31.89;95175.78;6275143;22;20523;-81
2021/08/09 07:36:41;;;;;;;6.10;5.33;;;;;;;33.37;32.41;95176.06;6276987;22;20479;-80
2021/08/09 07:39:08;;;;;;;7.53;5.37;;;;;;;33.35;33.11;95178.22;6277490;22;20888;-82
2021/08/09 07:41:37;;;;;;;9.53;6.10;;;;;;;33.49;33.28;95176.63;6275546;22;20480;-81
2021/08/09 07:44:04;;;;;;;6.87;5.87;;;;;;;33.08;31.80;95178.31;6276903;22;20484;-86
2021/08/09 07:46:31;;;;;;;11.30;7.07;;;;;;;32.99;33.65;95172.56;6279357;22;20511;-85
2021/08/09 07:48:58;;;;;;;7.23;5.70;;;;;;;33.22;34.42;95176.75;6278373;22;20962;-85
2021/08/09 07:51:25;;;;;;;8.10;6.60;;;;;;;33.49;33.02;95180.16;6278647;22;20475;-81
2021/08/09 07:53:52;;;;;;;7.43;6.45;;;;;;;33.88;32.54;95168.91;6277169;22;20830;-83
2021/08/09 07:56:19;;;;;;;14.17;6.53;;;;;;;33.44;32.46;95176.63;6278192;22;20190;-84
2021/08/09 07:58:48;;;;;;;10.17;6.60;;;;;;;33.74;33.11;95182.16;6279167;22;20471;-83
2021/08/09 08:01:15;;;;;;;29.70;10.80;;;;;;;33.90;32.07;95180.34;6278238;22;20472;-84
2021/08/09 08:20:31;;;;;;;12.10;7.30;;;;;;;33.17;34.51;95185.72;6276525;22;20392;-83
2021/08/09 08:23:02;;;;;;;10.10;6.57;;;;;;;33.45;34.26;95179.06;6278002;22;20703;-83
2021/08/09 08:25:29;;;;;;;9.00;6.77;;;;;;;33.30;34.02;95183.63;6278586;22;20924;-83
2021/08/09 08:27:56;;;;;;;11.80;6.93;;;;;;;33.41;33.50;95179.88;6278569;22;20532;-84
2021/08/09 08:30:23;;;;;;;7.83;7.03;;;;;;;33.44;33.75;95176.63;6279163;22;20765;-83
2021/08/09 08:32:50;;;;;;;8.27;6.80;;;;;;;33.52;34.03;95178.81;6278413;22;20405;-82
2021/08/09 08:35:17;;;;;;;17.93;6.63;;;;;;;33.68;33.16;95175.06;6278575;22;20464;-81
2021/08/09 08:37:45;;;;;;;8.53;7.70;;;;;;;33.73;34.58;95177.81;6277925;22;20428;-83
2021/08/09 08:40:13;;;;;;;8.70;6.97;;;;;;;34.03;33.55;95176.28;6278184;22;20487;-82
2021/08/09 08:42:40;;;;;;;14.13;7.00;;;;;;;34.24;32.95;95177.94;6225836;22;20436;-83
2021/08/09 08:45:09;;;;;;;10.53;6.57;;;;;;;34.31;32.71;95178.47;6278245;22;20860;-82
2021/08/09 08:47:36;;;;;;;7.77;6.87;;;;;;;34.31;31.06;95177.66;6278553;22;20440;-82
2021/08/09 08:50:04;;;;;;;13.07;7.00;;;;;;;34.35;32.46;95173.34;6278367;22;20459;-82
2021/08/09 08:52:31;;;;;;;10.13;7.57;;;;;;;34.45;31.56;95176.91;6224808;22;20393;-81
2021/08/09 08:54:59;;;;;;;15.07;7.03;;;;;;;34.47;30.47;95180.16;6277631;22;20532;-80
2021/08/09 08:57:26;;;;;;;11.17;6.57;;;;;;;34.58;31.64;95171.97;6277536;22;20400;-80
2021/08/09 08:59:53;;;;;;;10.47;6.67;;;;;;;34.70;31.67;95175.25;6277540;22;20484;-80
2021/08/09 09:02:35;;;;;;;7.80;7.00;;;;;;;34.43;35.66;95175.53;6278378;22;20780;-87
2021/08/09 09:05:10;;;;;;;8.80;7.00;;;;;;;34.07;32.49;95172.72;6277054;22;20414;-81
2021/08/09 09:07:40;;;;;;;7.83;6.60;;;;;;;33.95;32.59;95168.63;6277912;22;20424;-81
2021/08/09 09:10:24;;;;;;;11.30;7.30;;;;;;;34.31;33.52;95167.56;6225171;22;20405;-82
2021/08/09 09:13:11;;;;;;;10.77;7.00;;;;;;;34.62;30.77;95171.16;6277893;22;20740;-81
2021/08/09 09:15:56;;;;;;;10.67;7.97;;;;;;;34.76;28.44;95165.97;6225120;22;20523;-81
2021/08/09 09:18:26;;;;;;;10.57;7.87;;;;;;;34.85;28.53;95164.34;6276428;22;20491;-81
2021/08/09 09:20:53;;;;;;;9.63;8.63;;;;;;;34.73;28.57;95161.06;6246962;22;20711;-81
2021/08/09 09:23:22;;;;;;;9.67;8.30;;;;;;;34.70;29.37;95153.44;6276206;22;20432;-80
2021/08/09 09:25:52;;;;;;;18.77;9.70;;;;;;;34.90;29.52;95147.97;6277250;22;20424;-80
2021/08/09 09:28:24;;;;;;;9.10;8.00;;;;;;;34.89;29.04;95159.16;6223985;22;20468;-83
2021/08/09 09:30:51;;;;;;;13.20;7.37;;;;;;;34.95;29.10;95152.56;6277207;22;20488;-80
2021/08/09 09:33:18;;;;;;;10.00;7.60;;;;;;;34.79;27.97;95147.13;6223652;22;20412;-80
2021/08/09 09:35:45;;;;;;;9.60;7.97;;;;;;;34.67;28.17;95148.50;6275887;22;20443;-81
2021/08/09 09:38:12;;;;;;;14.63;7.83;;;;;;;34.72;27.98;95151.25;6223957;22;20487;-80
2021/08/09 09:40:41;;;;;;;8.70;7.90;;;;;;;34.83;28.65;95154.75;6276220;22;20476;-80
2021/08/09 09:43:18;;;;;;;9.90;8.60;;;;;;;34.93;28.37;95152.03;6277161;22;20440;-80
2021/08/09 09:45:53;;;;;;;8.30;7.50;;;;;;;35.01;28.71;95149.59;6277072;22;20728;-82
2021/08/09 09:48:32;;;;;;;14.50;8.60;;;;;;;35.10;28.05;95147.09;6277360;22;20404;-81
2021/08/09 09:51:09;;;;;;;8.40;7.63;;;;;;;35.13;27.53;95140.25;6276512;22;20404;-81
2021/08/09 09:53:36;;;;;;;20.50;9.00;;;;;;;35.13;28.51;95143.00;6275856;22;20404;-81
2021/08/09 09:56:04;;;;;;;11.90;9.23;;;;;;;35.20;28.72;95138.03;6274978;22;20483;-81
2021/08/09 09:58:34;;;;;;;11.73;8.73;;;;;;;35.23;28.11;95134.75;6276061;22;20480;-80
2021/08/09 10:01:02;;;;;;;11.57;8.50;;;;;;;35.25;27.58;95138.84;6276987;22;20488;-80
2021/08/09 10:03:31;;;;;;;9.60;8.50;;;;;;;35.08;27.18;95135.66;6277668;22;20495;-81
2021/08/09 10:05:59;;;;;;;12.60;8.53;;;;;;;34.95;27.92;95123.38;6223734;22;20465;-81
2021/08/09 10:08:28;;;;;;;11.27;9.00;;;;;;;34.62;28.16;95121.25;6224545;22;20436;-82
2021/08/09 10:10:59;;;;;;;14.40;8.87;;;;;;;34.69;28.35;95122.59;6277224;22;20429;-81
2021/08/09 10:13:28;;;;;;;10.77;9.17;;;;;;;34.64;29.52;95121.78;6224881;22;20411;-80
2021/08/09 10:16:01;;;;;;;9.73;8.73;;;;;;;34.48;29.08;95121.84;6277642;22;20522;-81
2021/08/09 10:18:31;;;;;;;9.43;8.43;;;;;;;34.53;28.51;95117.47;6276456;22;21315;-80
2021/08/09 10:20:59;;;;;;;15.10;9.87;;;;;;;34.49;28.77;95119.94;6277738;22;20437;-81
2021/08/09 10:23:45;;;;;;;12.47;8.73;;;;;;;34.57;28.21;95110.38;6223837;22;20428;-81
2021/08/09 10:26:13;;;;;;;10.83;9.30;;;;;;;34.60;29.07;95118.00;6277212;22;20447;-81
2021/08/09 10:29:04;;;;;;;9.60;8.70;;;;;;;34.63;27.75;95109.25;6276247;22;20479;-80
2021/08/09 10:31:35;;;;;;;10.50;9.40;;;;;;;34.57;27.84;95110.38;6277225;22;20462;-81
2021/08/09 10:34:05;;;;;;;10.03;8.90;;;;;;;34.60;28.01;95101.63;6277335;22;20477;-81
2021/08/09 10:37:06;;;;;;;13.27;9.50;;;;;;;34.66;28.36;95109.53;6277423;22;20491;-81
2021/08/09 10:39:53;;;;;;;14.97;8.47;;;;;;;34.65;29.02;95107.88;6276678;22;20868;-81
2021/08/09 10:42:36;;;;;;;10.93;9.00;;;;;;;34.65;28.25;95107.06;6277152;22;20435;-81
2021/08/09 10:45:06;;;;;;;12.53;8.80;;;;;;;34.67;29.22;95102.16;6277325;22;20432;-81
2021/08/09 10:47:52;;;;;;;9.63;8.80;;;;;;;34.75;27.93;95104.34;6277211;22;20480;-81
2021/08/09 10:50:54;;;;;;;11.80;9.30;;;;;;;34.90;27.89;95103.50;6277097;22;20491;-82
2021/08/09 10:53:44;;;;;;;8.47;7.70;;;;;;;34.94;26.74;95099.94;6182945;23;20402;-81
2021/08/09 10:56:47;;;;;;;11.00;8.90;;;;;;;34.89;26.43;95097.22;6132944;23;20638;-81
2021/08/09 10:59:40;;;;;;;11.03;7.90;;;;;;;34.88;27.33;95100.25;6183051;23;20508;-80
2021/08/09 11:02:16;;;;;;;18.30;9.47;;;;;;;34.87;26.86;95098.59;6182658;23;20450;-80
2021/08/09 11:04:44;;;;;;;13.47;8.80;;;;;;;34.87;27.09;95091.25;6157875;23;20493;-82
2021/08/09 11:07:20;;;;;;;10.10;9.10;;;;;;;34.98;26.86;95086.56;6131940;23;20986;-82
2021/08/09 11:09:48;;;;;;;11.07;8.97;;;;;;;35.05;27.02;95089.81;6182431;23;20482;-83
2021/08/09 11:12:20;;;;;;;9.33;8.40;;;;;;;35.08;26.83;95092.00;6181083;23;20502;-82
2021/08/09 11:15:26;;;;;;;8.97;8.27;;;;;;;35.16;27.27;95079.69;6181588;23;20447;-82
2021/08/09 11:17:58;;;;;;;12.93;8.23;;;;;;;35.20;27.17;95086.19;6184680;23;20414;-82
2021/08/09 11:20:30;;;;;;;10.07;8.33;;;;;;;35.30;26.87;95091.63;6184265;23;20465;-82
2021/08/09 11:23:03;;;;;;;9.37;8.37;;;;;;;35.30;25.66;95086.19;6184377;23;20403;-82
2021/08/09 11:25:33;;;;;;;10.37;8.40;;;;;;;35.26;25.91;95085.06;6183983;23;20799;-81
2021/08/09 11:28:03;;;;;;;10.17;8.17;;;;;;;35.24;25.93;95088.09;6184513;23;20933;-82
2021/08/09 11:30:42;;;;;;;12.23;8.03;;;;;;;35.15;26.69;95084.31;6193294;22;21013;-82
2021/08/09 11:33:20;;;;;;;10.57;8.17;;;;;;;35.02;25.52;95077.56;6278481;22;20426;-80
2021/08/09 11:35:49;;;;;;;9.43;8.50;;;;;;;34.94;26.07;95082.75;6278253;22;20440;-80
2021/08/09 11:38:16;;;;;;;12.90;8.50;;;;;;;35.00;27.45;95077.03;6277052;22;20484;-81
2021/08/09 11:40:46;;;;;;;9.30;8.40;;;;;;;35.09;26.31;95069.06;6277400;22;20431;-81
2021/08/09 11:43:14;;;;;;;8.83;8.00;;;;;;;35.18;26.32;95077.47;6278436;22;20486;-82
2021/08/09 11:45:42;;;;;;;14.83;9.13;;;;;;;35.26;27.47;95068.69;6277867;22;20974;-82
2021/08/09 11:48:10;;;;;;;12.70;8.53;;;;;;;35.40;26.90;95069.78;6277940;22;20432;-82
2021/08/09 11:50:40;;;;;;;12.27;8.57;;;;;;;35.37;25.70;95075.78;6278344;22;20491;-82
2021/08/09 11:53:09;;;;;;;8.93;7.50;;;;;;;35.25;25.29;95065.16;6277478;22;20444;-81
2021/08/09 11:55:37;;;;;;;11.00;8.03;;;;;;;35.23;26.45;95074.72;6278264;22;20551;-81
2021/08/09 11:58:05;;;;;;;15.63;7.77;;;;;;;35.35;26.11;95065.16;6277227;22;20442;-81
2021/08/09 12:00:40;;;;;;;8.03;7.23;;;;;;;35.37;25.59;95070.34;6249140;22;20975;-86
2021/08/09 12:03:18;;;;;;;10.53;7.87;;;;;;;35.36;26.57;95066.78;6277403;22;20439;-84